createdAt,value
2022-08-16T00:09:21.078Z,57.18
2022-08-16T00:11:55.476Z,57.26
2022-08-16T00:14:34.822Z,57.17
2022-08-16T00:17:18.880Z,57.04
2022-08-16T00:19:53.353Z,57.14
2022-08-16T00:30:40.840Z,57.04
2022-08-16T00:31:01.013Z,56.86
2022-08-16T00:33:07.283Z,56.89
2022-08-16T00:35:39.587Z,56.94
2022-08-16T00:38:41.297Z,56.86
2022-08-16T00:41:05.948Z,56.84
2022-08-16T00:43:45.404Z,56.73
2022-08-16T00:46:33.794Z,56.69
2022-08-16T00:49:17.606Z,56.77
2022-08-16T00:51:53.705Z,56.65
2022-08-16T00:54:28.111Z,56.68
2022-08-16T00:57:01.872Z,56.63
2022-08-16T00:59:34.465Z,56.67
2022-08-16T01:02:30.087Z,56.63
2022-08-16T01:05:11.170Z,56.66
2022-08-16T01:07:50.723Z,56.59
2022-08-16T01:10:32.201Z,56.62
2022-08-16T01:13:08.109Z,56.58
2022-08-16T01:15:43.063Z,56.61
2022-08-16T01:18:40.597Z,56.48
2022-08-16T01:21:16.848Z,56.52
2022-08-16T01:24:44.529Z,56.53
2022-08-16T01:27:07.363Z,56.43
2022-08-16T01:29:57.110Z,56.41
2022-08-16T01:32:33.373Z,56.90
2022-08-16T01:35:23.678Z,57.14
2022-08-16T01:37:57.294Z,57.13
2022-08-16T01:40:33.295Z,57.17
2022-08-16T01:43:04.725Z,57.08
2022-08-16T01:45:40.938Z,57.00
2022-08-16T01:48:20.404Z,57.18
2022-08-16T01:51:08.288Z,57.39
2022-08-16T01:53:42.079Z,57.45
2022-08-16T01:56:24.563Z,57.34
2022-08-16T01:58:57.256Z,57.71
2022-08-16T02:01:29.099Z,58.12
2022-08-16T02:04:10.749Z,58.09
2022-08-16T02:06:46.040Z,58.12
2022-08-16T02:09:17.745Z,57.92
2022-08-16T02:11:53.495Z,57.95
2022-08-16T02:14:26.455Z,58.01
2022-08-16T02:17:01.053Z,57.99
2022-08-16T02:19:59.920Z,58.01
2022-08-16T02:22:33.489Z,58.21
2022-08-16T02:25:09.811Z,58.63
2022-08-16T02:28:08.341Z,58.75
2022-08-16T02:30:44.251Z,59.00
2022-08-16T02:33:15.489Z,59.01
2022-08-16T02:35:54.062Z,58.90
2022-08-16T02:38:28.134Z,58.78
2022-08-16T02:40:59.340Z,58.81
2022-08-16T02:43:45.278Z,58.68
2022-08-16T02:46:29.969Z,58.59
2022-08-16T02:49:04.448Z,58.63
2022-08-16T02:51:42.835Z,58.71
2022-08-16T02:54:14.727Z,58.92
2022-08-16T02:56:47.939Z,59.04
2022-08-16T02:59:18.576Z,58.87
2022-08-16T03:01:49.597Z,58.85
2022-08-16T03:04:48.911Z,59.08
2022-08-16T03:07:09.835Z,59.30
2022-08-16T03:09:44.312Z,59.27
2022-08-16T03:12:16.455Z,59.32
2022-08-16T03:14:46.864Z,59.62
2022-08-16T03:17:16.916Z,59.74
2022-08-16T03:19:59.501Z,59.60
2022-08-16T03:22:30.429Z,59.48
2022-08-16T03:25:09.865Z,59.21
2022-08-16T03:27:42.724Z,59.16
2022-08-16T03:30:18.654Z,59.24
2022-08-16T03:32:51.776Z,59.19
2022-08-16T03:35:32.606Z,59.19
2022-08-16T03:38:32.156Z,59.10
2022-08-16T03:41:01.016Z,58.88
2022-08-16T03:43:51.471Z,58.89
2022-08-16T03:46:47.537Z,58.96
2022-08-16T03:49:13.174Z,59.05
2022-08-16T03:51:44.085Z,59.18
2022-08-16T03:54:13.989Z,59.30
2022-08-16T03:56:57.992Z,59.26
2022-08-16T03:59:29.616Z,59.35
2022-08-16T04:02:01.535Z,59.21
2022-08-16T04:04:35.663Z,59.11
2022-08-16T04:07:08.102Z,58.99
2022-08-16T04:09:38.619Z,58.93
2022-08-16T04:12:11.384Z,58.87
2022-08-16T04:15:02.307Z,58.87
2022-08-16T04:18:00.229Z,58.83
2022-08-16T04:24:40.641Z,58.64
2022-08-16T04:27:24.590Z,58.57
2022-08-16T04:30:35.048Z,58.57
2022-08-16T04:33:08.682Z,58.53
2022-08-16T04:36:11.572Z,58.79
2022-08-16T04:39:15.752Z,58.79
2022-08-16T04:42:45.127Z,58.85
2022-08-16T04:45:35.838Z,59.08
2022-08-16T04:48:08.522Z,59.04
2022-08-16T04:51:07.857Z,59.16
2022-08-16T04:54:03.764Z,59.04
2022-08-16T04:56:43.034Z,59.30
2022-08-16T04:59:29.499Z,59.24
2022-08-16T05:02:41.577Z,59.53
2022-08-16T05:04:54.852Z,59.35
2022-08-16T05:07:38.275Z,59.29
2022-08-16T05:10:19.471Z,59.38
2022-08-16T05:12:49.600Z,59.42
2022-08-16T05:15:20.451Z,59.58
2022-08-16T05:18:05.217Z,59.47
2022-08-16T05:21:10.959Z,59.23
2022-08-16T05:23:55.747Z,59.29
2022-08-16T05:27:42.877Z,59.42
2022-08-16T05:30:34.971Z,59.28
2022-08-16T05:33:16.447Z,59.20
2022-08-16T05:37:39.748Z,59.23
2022-08-16T05:49:45.740Z,58.98
2022-08-16T05:50:05.329Z,59.21
2022-08-16T05:52:22.454Z,59.09
2022-08-16T05:55:01.504Z,58.73
2022-08-16T05:57:35.444Z,58.72
2022-08-16T06:00:09.313Z,58.81
2022-08-16T06:02:41.977Z,58.79
2022-08-16T06:05:12.606Z,58.80
2022-08-16T06:07:45.002Z,59.01
2022-08-16T06:10:32.242Z,59.16
2022-08-16T06:13:04.849Z,59.19
2022-08-16T06:15:37.566Z,59.24
2022-08-16T06:18:11.200Z,59.30
2022-08-16T06:20:55.197Z,59.19
2022-08-16T06:23:32.384Z,59.22
2022-08-16T06:26:04.539Z,59.38
2022-08-16T06:28:39.825Z,59.31
2022-08-16T06:31:18.263Z,59.66
2022-08-16T06:33:54.145Z,59.58
2022-08-16T06:36:39.669Z,59.61
2022-08-16T06:39:13.857Z,59.88
2022-08-16T06:41:49.565Z,59.76
2022-08-16T06:44:24.453Z,59.82
2022-08-16T06:47:53.746Z,59.89
2022-08-16T06:50:28.774Z,59.58
2022-08-16T06:53:15.109Z,59.38
2022-08-16T06:55:48.764Z,59.45
2022-08-16T06:58:31.325Z,59.53
2022-08-16T07:01:15.706Z,59.40
2022-08-16T07:04:31.696Z,59.32
2022-08-16T07:07:14.556Z,59.17
2022-08-16T07:09:45.099Z,59.10
2022-08-16T07:12:19.272Z,58.61
2022-08-16T07:14:49.023Z,58.43
2022-08-16T07:17:21.138Z,58.43
2022-08-16T07:20:03.778Z,57.84
2022-08-16T07:22:59.230Z,57.54
2022-08-16T07:25:31.952Z,57.44
2022-08-16T07:31:37.729Z,57.03
2022-08-16T07:41:23.214Z,56.03
2022-08-16T07:41:27.578Z,56.78
2022-08-16T07:43:52.274Z,56.06
2022-08-16T07:46:39.145Z,56.07
2022-08-16T07:49:11.501Z,56.16
2022-08-16T07:51:45.280Z,56.20
2022-08-16T07:54:21.238Z,55.76
2022-08-16T07:57:02.354Z,55.62
2022-08-16T07:59:42.833Z,55.75
2022-08-16T08:02:43.581Z,55.23
2022-08-16T08:05:16.070Z,54.99
2022-08-16T08:11:09.555Z,54.92
2022-08-16T08:13:44.949Z,54.72
2022-08-16T08:16:30.568Z,54.63
2022-08-16T08:19:02.925Z,54.39
2022-08-16T08:22:00.662Z,54.43
2022-08-16T08:24:31.512Z,54.30
2022-08-16T08:27:04.341Z,54.24
2022-08-16T08:29:40.372Z,54.10
2022-08-16T08:32:58.489Z,53.93
2022-08-16T08:35:04.989Z,53.99
2022-08-16T08:37:54.366Z,53.73
2022-08-16T08:40:29.319Z,53.17
2022-08-16T08:43:11.798Z,53.06
2022-08-16T08:45:58.301Z,52.94
2022-08-16T08:48:33.977Z,52.50
2022-08-16T08:51:11.132Z,52.68
2022-08-16T08:53:41.093Z,52.68
2022-08-16T08:56:23.278Z,52.56
2022-08-16T08:58:59.971Z,52.30
2022-08-16T09:01:43.105Z,52.28
2022-08-16T09:04:28.841Z,52.26
2022-08-16T09:07:04.817Z,52.22
2022-08-16T09:09:40.902Z,52.02
2022-08-16T09:12:35.495Z,51.52
2022-08-16T09:15:08.754Z,50.81
2022-08-16T09:17:52.387Z,51.09
2022-08-16T09:20:26.640Z,50.92
2022-08-16T09:22:58.713Z,50.16
2022-08-16T09:25:35.492Z,50.11
2022-08-16T09:28:10.713Z,50.00
2022-08-16T09:30:44.215Z,50.10
2022-08-16T09:33:18.095Z,49.47
2022-08-16T09:35:53.642Z,49.12
2022-08-16T09:38:32.244Z,48.45
2022-08-16T09:41:03.343Z,48.60
2022-08-16T09:43:58.330Z,48.25
2022-08-16T09:46:45.508Z,47.77
2022-08-16T09:49:19.938Z,47.43
2022-08-16T09:51:54.342Z,47.06
2022-08-16T09:54:32.173Z,47.45
2022-08-16T09:57:05.131Z,47.27
2022-08-16T09:59:38.525Z,47.12
2022-08-16T10:02:26.411Z,46.40
2022-08-16T10:04:59.417Z,46.02
2022-08-16T10:07:45.050Z,45.66
2022-08-16T10:10:18.867Z,45.72
2022-08-16T10:13:16.329Z,45.63
2022-08-16T10:15:54.849Z,44.91
2022-08-16T10:18:56.787Z,44.42
2022-08-16T10:21:17.862Z,44.09
2022-08-16T10:23:49.063Z,43.83
2022-08-16T10:27:18.900Z,43.74
2022-08-16T10:29:19.863Z,43.59
2022-08-16T10:31:53.087Z,43.62
2022-08-16T10:34:30.689Z,42.93
2022-08-16T10:37:01.961Z,42.95
2022-08-16T10:39:41.754Z,42.76
2022-08-16T10:42:14.447Z,42.96
2022-08-16T10:45:39.413Z,42.61
2022-08-16T10:48:00.838Z,41.74
2022-08-16T10:50:41.026Z,41.30
2022-08-16T10:53:23.029Z,40.85
2022-08-16T10:55:57.468Z,40.96
2022-08-16T10:58:34.443Z,41.32
2022-08-16T11:03:57.828Z,39.63
2022-08-16T11:06:28.935Z,40.12
2022-08-16T11:12:14.187Z,40.01
2022-08-16T11:17:36.508Z,38.87
2022-08-16T11:23:08.368Z,39.20
2022-08-16T11:31:19.171Z,37.75
2022-08-16T11:33:52.586Z,37.52
2022-08-16T11:36:28.172Z,38.12
2022-08-16T11:39:04.778Z,37.73
2022-08-16T11:48:47.864Z,36.85
2022-08-16T11:51:03.433Z,36.35
2022-08-16T11:51:19.630Z,36.95
2022-08-16T11:54:23.491Z,36.70
2022-08-16T11:57:11.497Z,35.77
2022-08-16T11:59:58.007Z,35.02
2022-08-16T12:02:37.279Z,35.39
2022-08-16T12:05:23.158Z,35.30
2022-08-16T12:08:07.337Z,34.55
2022-08-16T12:11:03.875Z,34.68
2022-08-16T12:13:41.478Z,34.44
2022-08-16T12:17:46.459Z,33.58
2022-08-16T12:20:18.573Z,33.95
2022-08-16T12:26:34.865Z,33.15
2022-08-16T12:30:21.804Z,32.06
2022-08-16T12:40:38.733Z,30.33
2022-08-16T12:43:16.043Z,30.95
2022-08-16T12:45:49.342Z,31.38
2022-08-16T12:48:50.793Z,30.54
2022-08-16T12:51:30.586Z,31.13
2022-08-16T12:54:09.266Z,31.47
2022-08-16T12:57:00.437Z,31.23
2022-08-16T12:59:33.459Z,30.52
2022-08-16T13:02:22.785Z,30.56
2022-08-16T13:05:02.979Z,29.32
2022-08-16T13:07:51.195Z,29.90
2022-08-16T13:10:36.822Z,28.55
2022-08-16T13:13:09.228Z,28.37
2022-08-16T13:15:51.492Z,28.98
2022-08-16T13:18:34.195Z,27.36
2022-08-16T13:21:07.404Z,27.55
2022-08-16T13:23:43.234Z,27.33
2022-08-16T13:26:17.770Z,26.47
2022-08-16T13:28:48.112Z,27.31
2022-08-16T13:31:17.923Z,26.58
2022-08-16T13:33:47.351Z,26.71
2022-08-16T13:36:32.153Z,26.33
2022-08-16T13:39:09.333Z,26.67
2022-08-16T13:41:40.180Z,26.39
2022-08-16T13:44:10.290Z,25.64
2022-08-16T13:46:41.228Z,26.21
2022-08-16T13:49:14.980Z,26.64
2022-08-16T13:51:44.865Z,26.25
2022-08-16T13:57:05.465Z,26.42
2022-08-16T13:59:38.041Z,26.04
2022-08-16T14:02:11.333Z,26.58
2022-08-16T14:05:02.724Z,26.32
2022-08-16T14:07:40.470Z,26.65
2022-08-16T14:10:16.435Z,26.44
2022-08-16T14:12:45.904Z,26.03
2022-08-16T14:15:18.302Z,26.10
2022-08-16T14:18:17.464Z,26.21
2022-08-16T14:20:38.705Z,26.21
2022-08-16T14:23:07.947Z,26.04
2022-08-16T14:25:39.831Z,26.26
2022-08-16T14:28:10.172Z,26.49
2022-08-16T14:30:42.391Z,26.58
2022-08-16T14:33:11.849Z,26.40
2022-08-16T14:35:50.325Z,26.36
2022-08-16T14:38:23.736Z,26.61
2022-08-16T14:40:55.123Z,26.31
2022-08-16T14:43:25.728Z,26.89
2022-08-16T14:45:59.461Z,27.23
2022-08-16T14:48:29.054Z,27.42
2022-08-16T14:51:02.058Z,27.66
2022-08-16T14:53:35.319Z,27.87
2022-08-16T14:56:38.447Z,28.09
2022-08-16T14:59:12.452Z,28.44
2022-08-16T15:02:01.959Z,28.74
2022-08-16T15:07:52.135Z,30.24
2022-08-16T15:10:24.317Z,30.30
2022-08-16T15:12:59.250Z,30.68
2022-08-16T15:15:35.269Z,30.93
2022-08-16T15:18:06.993Z,30.90
2022-08-16T15:20:43.948Z,30.98
2022-08-16T15:23:15.178Z,31.12
2022-08-16T15:26:34.833Z,31.42
2022-08-16T15:29:23.181Z,31.42
2022-08-16T15:32:00.635Z,31.65
2022-08-16T15:34:31.287Z,31.85
2022-08-16T15:37:02.779Z,31.89
2022-08-16T15:39:38.830Z,31.92
2022-08-16T15:42:27.432Z,31.87
2022-08-16T15:45:00.433Z,32.04
2022-08-16T15:47:33.556Z,32.04
2022-08-16T15:50:11.575Z,31.88
2022-08-16T15:52:48.206Z,31.93
2022-08-16T15:59:17.310Z,31.81
2022-08-16T16:06:12.969Z,31.76
2022-08-16T16:08:44.981Z,31.87
2022-08-16T16:14:44.663Z,31.70
2022-08-16T16:14:52.989Z,31.79
2022-08-16T16:17:31.170Z,31.95
2022-08-16T16:20:01.472Z,32.13
2022-08-16T16:22:52.012Z,32.11
2022-08-16T16:25:23.928Z,32.18
2022-08-16T16:27:55.318Z,32.23
2022-08-16T16:30:44.947Z,32.36
2022-08-16T16:33:20.847Z,32.47
2022-08-16T16:35:55.143Z,32.39
2022-08-16T16:38:32.266Z,32.53
2022-08-16T16:41:09.217Z,32.51
2022-08-16T16:44:00.150Z,32.32
2022-08-16T16:46:43.205Z,32.36
2022-08-16T16:52:44.442Z,32.42
2022-08-16T16:52:45.218Z,32.24
2022-08-16T16:55:22.259Z,32.41
2022-08-16T16:58:28.957Z,32.33
2022-08-16T17:01:05.732Z,32.73
2022-08-16T17:03:41.325Z,33.17
2022-08-16T17:10:12.740Z,33.37
2022-08-16T17:13:21.898Z,33.73
2022-08-16T17:15:52.374Z,33.87
2022-08-16T17:21:37.140Z,34.28
2022-08-16T17:23:14.543Z,34.65
2022-08-16T17:25:52.073Z,35.00
2022-08-16T17:28:58.422Z,34.99
2022-08-16T17:31:17.083Z,35.61
2022-08-16T17:34:30.660Z,36.02
2022-08-16T17:51:43.430Z,37.20
2022-08-16T17:54:37.047Z,37.44
2022-08-16T17:57:16.968Z,37.56
2022-08-16T18:26:44.607Z,39.18
2022-08-16T18:26:46.496Z,40.00
2022-08-16T18:29:27.097Z,40.27
2022-08-16T18:32:44.067Z,40.39
2022-08-16T18:35:15.844Z,40.53
2022-08-16T18:37:52.472Z,40.81
2022-08-16T19:30:12.430Z,44.06
2022-08-16T20:22:53.952Z,44.06
2022-08-16T20:30:13.928Z,45.62
2022-08-16T20:35:45.561Z,45.74
2022-08-16T20:36:25.811Z,46.21
2022-08-16T20:42:42.330Z,46.05
2022-08-16T20:45:42.299Z,45.90
2022-08-16T20:48:26.939Z,45.83
2022-08-16T20:50:58.184Z,45.08
2022-08-16T20:56:59.619Z,45.92
2022-08-16T20:59:36.302Z,45.86
2022-08-16T21:03:04.777Z,46.03
2022-08-16T21:05:48.498Z,46.03
2022-08-16T21:06:23.716Z,45.68
2022-08-16T21:13:25.946Z,45.88
2022-08-16T22:02:46.668Z,47.73
2022-08-16T22:05:19.976Z,47.67
2022-08-16T22:08:05.320Z,47.75
2022-08-16T22:11:07.444Z,47.56
2022-08-16T22:13:30.309Z,47.49
2022-08-16T22:16:03.622Z,47.48
2022-08-16T22:18:33.055Z,47.53
2022-08-16T22:21:02.944Z,47.68
2022-08-16T22:23:34.159Z,47.58
2022-08-16T22:26:03.677Z,47.74
2022-08-16T22:28:33.350Z,47.74
2022-08-16T22:31:02.764Z,47.95
2022-08-16T22:33:34.158Z,48.25
2022-08-16T22:36:08.112Z,48.42
2022-08-16T22:38:54.504Z,48.40
2022-08-16T22:41:30.307Z,48.72
2022-08-16T22:44:05.074Z,48.87
2022-08-16T22:46:38.314Z,48.80
2022-08-16T22:49:13.466Z,48.93
2022-08-16T22:51:42.725Z,49.04
2022-08-16T22:54:41.279Z,49.03
2022-08-16T22:57:07.991Z,49.19
2022-08-16T23:00:05.805Z,49.07
2022-08-16T23:02:35.019Z,49.19
2022-08-16T23:05:10.255Z,49.29
2022-08-16T23:07:39.738Z,49.22
2022-08-16T23:10:10.406Z,49.42
2022-08-16T23:12:49.801Z,49.43
2022-08-16T23:15:23.207Z,49.57
2022-08-16T23:17:55.293Z,49.57
2022-08-16T23:20:27.252Z,49.50
2022-08-16T23:23:18.981Z,49.72
2022-08-16T23:25:51.841Z,49.65
2022-08-16T23:28:27.248Z,49.66
2022-08-16T23:30:58.419Z,49.57
2022-08-16T23:33:28.995Z,49.71
2022-08-16T23:36:00.808Z,49.65
2022-08-16T23:41:50.829Z,49.86
2022-08-16T23:41:56.583Z,49.96
2022-08-16T23:44:42.325Z,50.14
2022-08-16T23:47:15.385Z,50.34
2022-08-16T23:50:01.413Z,50.43
2022-08-16T23:52:42.166Z,50.55
2022-08-16T23:55:22.529Z,50.72
2022-08-16T23:57:52.398Z,50.64
